createdAt,value
2017-10-17T00:00:07.860Z,65.70
2017-10-17T00:01:12.792Z,65.70
2017-10-17T00:02:17.664Z,65.70
2017-10-17T00:03:22.373Z,65.70
2017-10-17T00:04:27.223Z,65.60
2017-10-17T00:05:31.879Z,65.60
2017-10-17T00:06:36.718Z,65.60
2017-10-17T00:07:41.462Z,65.60
2017-10-17T00:08:46.200Z,65.60
2017-10-17T00:09:50.936Z,65.60
2017-10-17T00:10:55.482Z,65.60
2017-10-17T00:12:00.204Z,65.50
2017-10-17T00:13:04.962Z,65.40
2017-10-17T00:14:09.773Z,65.50
2017-10-17T00:15:14.501Z,65.50
2017-10-17T00:16:19.107Z,65.50
2017-10-17T00:17:23.721Z,65.40
2017-10-17T00:18:28.555Z,65.50
2017-10-17T00:19:33.115Z,65.40
2017-10-17T00:20:37.917Z,65.40
2017-10-17T00:21:42.558Z,65.40
2017-10-17T00:22:47.310Z,65.30
2017-10-17T00:23:52.052Z,65.30
2017-10-17T00:24:56.640Z,65.30
2017-10-17T00:26:01.255Z,65.30
2017-10-17T00:27:06.006Z,65.30
2017-10-17T00:28:10.766Z,65.30
2017-10-17T00:29:15.528Z,65.30
2017-10-17T00:30:20.155Z,65.30
2017-10-17T00:31:25.144Z,65.20
2017-10-17T00:32:29.943Z,65.20
2017-10-17T00:33:34.625Z,65.20
2017-10-17T00:34:39.457Z,65.20
2017-10-17T00:35:44.224Z,65.20
2017-10-17T00:36:48.986Z,65.20
2017-10-17T00:37:53.898Z,65.20
2017-10-17T00:38:58.664Z,65.20
2017-10-17T00:40:03.547Z,65.20
2017-10-17T00:41:08.248Z,65.20
2017-10-17T00:42:12.891Z,65.20
2017-10-17T00:43:17.668Z,65.20
2017-10-17T00:44:22.428Z,65.20
2017-10-17T00:45:27.337Z,65.10
2017-10-17T00:46:32.090Z,65.10
2017-10-17T00:47:36.872Z,65.10
2017-10-17T00:48:41.704Z,65.10
2017-10-17T00:49:46.441Z,65.10
2017-10-17T00:50:51.133Z,65.10
2017-10-17T00:51:55.852Z,65.10
2017-10-17T00:53:00.764Z,65.00
2017-10-17T00:54:05.654Z,65.10
2017-10-17T00:55:10.380Z,65.00
2017-10-17T00:56:15.125Z,65.00
2017-10-17T00:57:19.846Z,65.00
2017-10-17T00:58:24.813Z,65.00
2017-10-17T00:59:29.725Z,65.00
2017-10-17T01:00:34.448Z,65.00
2017-10-17T01:01:39.154Z,65.00
2017-10-17T01:02:43.932Z,65.00
2017-10-17T01:03:48.674Z,65.00
2017-10-17T01:04:53.444Z,65.00
2017-10-17T01:05:58.069Z,65.00
2017-10-17T01:07:02.693Z,65.00
2017-10-17T01:08:07.409Z,65.00
2017-10-17T01:09:12.051Z,64.90
2017-10-17T01:10:16.784Z,64.90
2017-10-17T01:11:21.340Z,64.90
2017-10-17T01:12:26.059Z,64.90
2017-10-17T01:13:30.767Z,65.00
2017-10-17T01:14:35.344Z,64.90
2017-10-17T01:15:40.284Z,64.90
2017-10-17T01:16:45.050Z,64.90
2017-10-17T01:17:49.956Z,64.90
2017-10-17T01:18:54.719Z,64.90
2017-10-17T01:19:59.510Z,64.80
2017-10-17T01:21:04.289Z,64.80
2017-10-17T01:22:09.049Z,64.80
2017-10-17T01:23:13.970Z,64.80
2017-10-17T01:24:18.587Z,64.80
2017-10-17T01:25:23.318Z,64.80
2017-10-17T01:26:28.231Z,64.80
2017-10-17T01:27:33.002Z,64.70
2017-10-17T01:28:37.705Z,64.70
2017-10-17T01:29:42.430Z,64.70
2017-10-17T01:30:47.285Z,64.70
2017-10-17T01:31:52.021Z,64.70
2017-10-17T01:32:56.591Z,64.70
2017-10-17T01:34:01.172Z,64.70
2017-10-17T01:35:05.913Z,64.60
2017-10-17T01:36:10.493Z,64.70
2017-10-17T01:37:15.108Z,64.60
2017-10-17T01:38:19.879Z,64.50
2017-10-17T01:39:24.656Z,64.60
2017-10-17T01:40:29.382Z,64.60
2017-10-17T01:41:34.322Z,64.60
2017-10-17T01:42:39.071Z,64.60
2017-10-17T01:43:43.961Z,64.50
2017-10-17T01:44:48.662Z,64.50
2017-10-17T01:45:53.642Z,64.60
2017-10-17T01:46:58.232Z,64.50
2017-10-17T01:48:02.979Z,64.50
2017-10-17T01:49:07.696Z,64.40
2017-10-17T01:50:12.406Z,64.50
2017-10-17T01:51:17.223Z,64.50
2017-10-17T01:52:22.156Z,64.50
2017-10-17T01:53:26.762Z,64.40
2017-10-17T01:54:31.499Z,64.40
2017-10-17T01:55:36.224Z,64.40
2017-10-17T01:56:41.029Z,64.40
2017-10-17T01:57:45.792Z,64.30
2017-10-17T01:58:50.525Z,64.40
2017-10-17T01:59:55.405Z,64.40
2017-10-17T02:01:00.123Z,64.40
2017-10-17T02:02:04.721Z,64.30
2017-10-17T02:03:09.601Z,64.40
2017-10-17T02:04:14.320Z,64.30
2017-10-17T02:05:19.173Z,64.30
2017-10-17T02:06:25.277Z,64.20
2017-10-17T02:07:30.048Z,64.30
2017-10-17T02:08:34.769Z,64.30
2017-10-17T02:09:39.382Z,64.20
2017-10-17T02:10:44.155Z,64.20
2017-10-17T02:11:49.131Z,64.20
2017-10-17T02:12:53.915Z,64.20
2017-10-17T02:13:58.492Z,64.10
2017-10-17T02:15:03.063Z,64.20
2017-10-17T02:16:07.711Z,64.10
2017-10-17T02:17:12.378Z,64.10
2017-10-17T02:18:17.149Z,64.10
2017-10-17T02:19:22.052Z,64.10
2017-10-17T02:20:26.752Z,64.10
2017-10-17T02:21:31.668Z,64.10
2017-10-17T02:22:36.393Z,64.10
2017-10-17T02:23:41.127Z,64.10
2017-10-17T02:24:45.865Z,64.10
2017-10-17T02:25:50.660Z,64.10
2017-10-17T02:26:55.586Z,64.10
2017-10-17T02:28:00.149Z,64.10
2017-10-17T02:29:04.765Z,64.10
2017-10-17T02:30:09.526Z,64.00
2017-10-17T02:31:14.293Z,64.00
2017-10-17T02:32:19.062Z,64.00
2017-10-17T02:33:23.632Z,64.00
2017-10-17T02:34:28.515Z,64.00
2017-10-17T02:35:33.084Z,64.00
2017-10-17T02:36:37.645Z,64.00
2017-10-17T02:37:42.342Z,64.00
2017-10-17T02:38:47.088Z,64.00
2017-10-17T02:39:51.956Z,64.00
2017-10-17T02:40:56.670Z,64.00
2017-10-17T02:42:01.451Z,64.00
2017-10-17T02:43:06.356Z,64.00
2017-10-17T02:44:11.216Z,64.00
2017-10-17T02:45:16.010Z,64.00
2017-10-17T02:46:20.978Z,64.00
2017-10-17T02:47:25.597Z,63.90
2017-10-17T02:48:30.346Z,63.90
2017-10-17T02:49:34.921Z,63.90
2017-10-17T02:50:39.457Z,63.90
2017-10-17T02:51:44.193Z,64.00
2017-10-17T02:52:49.086Z,63.90
2017-10-17T02:53:53.651Z,63.90
2017-10-17T02:54:58.384Z,63.80
2017-10-17T02:56:03.100Z,63.90
2017-10-17T02:57:07.805Z,63.90
2017-10-17T02:58:12.393Z,63.90
2017-10-17T02:59:17.276Z,63.80
2017-10-17T03:00:21.995Z,63.80
2017-10-17T03:01:26.795Z,63.80
2017-10-17T03:02:31.495Z,63.80
2017-10-17T03:03:36.296Z,63.80
2017-10-17T03:04:41.178Z,63.80
2017-10-17T03:05:46.031Z,63.80
2017-10-17T03:06:50.904Z,63.80
2017-10-17T03:07:55.706Z,64.50
2017-10-17T03:09:00.437Z,63.80
2017-10-17T03:10:05.010Z,63.80
2017-10-17T03:11:09.638Z,63.80
2017-10-17T03:12:14.286Z,63.70
2017-10-17T03:13:19.077Z,63.70
2017-10-17T03:14:24.001Z,63.80
2017-10-17T03:15:28.755Z,63.70
2017-10-17T03:16:33.486Z,63.80
2017-10-17T03:17:38.241Z,63.80
2017-10-17T03:18:42.792Z,63.80
2017-10-17T03:19:47.582Z,63.70
2017-10-17T03:20:52.199Z,63.70
2017-10-17T03:21:57.144Z,63.70
2017-10-17T03:23:01.735Z,63.70
2017-10-17T03:24:06.346Z,63.70
2017-10-17T03:25:11.233Z,63.60
2017-10-17T03:26:16.015Z,63.60
2017-10-17T03:27:20.580Z,63.60
2017-10-17T03:28:25.124Z,63.60
2017-10-17T03:29:30.258Z,63.60
2017-10-17T03:30:35.686Z,63.60
2017-10-17T03:31:40.653Z,63.50
2017-10-17T03:32:46.143Z,63.60
2017-10-17T03:33:51.578Z,63.50
2017-10-17T03:34:56.550Z,63.50
2017-10-17T03:36:01.776Z,63.50
2017-10-17T03:37:07.794Z,63.40
2017-10-17T03:38:12.867Z,63.40
2017-10-17T03:39:17.951Z,63.40
2017-10-17T03:40:23.080Z,63.40
2017-10-17T03:41:28.041Z,63.40
2017-10-17T03:42:33.066Z,63.40
2017-10-17T03:43:38.183Z,63.30
2017-10-17T03:44:44.182Z,63.30
2017-10-17T03:45:49.189Z,63.30
2017-10-17T03:46:54.057Z,63.20
2017-10-17T03:47:58.952Z,63.30
2017-10-17T03:49:03.951Z,63.20
2017-10-17T03:50:08.873Z,63.20
2017-10-17T03:51:14.023Z,63.30
2017-10-17T03:52:19.246Z,63.30
2017-10-17T03:53:27.286Z,63.20
2017-10-17T03:54:32.345Z,63.20
2017-10-17T03:55:37.368Z,63.20
2017-10-17T03:56:42.097Z,63.10
2017-10-17T03:57:46.961Z,63.20
2017-10-17T03:58:52.150Z,63.10
2017-10-17T03:59:57.077Z,63.10
2017-10-17T04:01:02.339Z,63.10
2017-10-17T04:02:08.228Z,63.10
2017-10-17T04:03:13.434Z,63.10
2017-10-17T04:04:18.484Z,63.10
2017-10-17T04:05:23.391Z,63.00
2017-10-17T04:06:28.550Z,63.10
2017-10-17T04:07:33.676Z,63.00
2017-10-17T04:08:38.629Z,63.80
2017-10-17T04:09:43.615Z,63.00
2017-10-17T04:10:49.194Z,63.00
2017-10-17T04:11:54.588Z,63.00
2017-10-17T04:12:59.772Z,63.00
2017-10-17T04:14:04.816Z,63.00
2017-10-17T04:15:09.957Z,63.00
2017-10-17T04:16:14.888Z,63.00
2017-10-17T04:17:20.031Z,63.00
2017-10-17T04:18:25.221Z,63.00
2017-10-17T04:19:30.070Z,62.90
2017-10-17T04:20:35.047Z,62.90
2017-10-17T04:21:40.069Z,62.90
2017-10-17T04:22:45.093Z,62.90
2017-10-17T04:23:50.025Z,62.90
2017-10-17T04:24:55.281Z,62.90
2017-10-17T04:26:00.270Z,62.90
2017-10-17T04:27:05.463Z,62.90
2017-10-17T04:28:10.497Z,62.80
2017-10-17T04:29:16.449Z,62.90
2017-10-17T04:30:21.472Z,62.90
2017-10-17T04:31:26.553Z,62.80
2017-10-17T04:32:32.042Z,62.80
2017-10-17T04:33:37.012Z,62.80
2017-10-17T04:34:41.992Z,62.80
2017-10-17T04:35:47.449Z,62.70
2017-10-17T04:36:52.369Z,62.70
2017-10-17T04:37:57.238Z,62.70
2017-10-17T04:39:02.511Z,62.70
2017-10-17T04:40:07.896Z,62.80
2017-10-17T04:41:12.907Z,62.80
2017-10-17T04:42:17.873Z,62.70
2017-10-17T04:43:23.066Z,63.00
2017-10-17T04:44:28.262Z,63.10
2017-10-17T04:45:33.410Z,63.30
2017-10-17T04:46:38.289Z,63.40
2017-10-17T04:47:43.313Z,63.40
2017-10-17T04:48:48.402Z,63.30
2017-10-17T04:49:53.915Z,63.20
2017-10-17T04:50:59.085Z,63.30
2017-10-17T04:52:04.296Z,63.30
2017-10-17T04:53:09.465Z,63.30
2017-10-17T04:54:15.191Z,63.50
2017-10-17T04:55:20.631Z,63.50
2017-10-17T04:56:25.967Z,63.50
2017-10-17T04:57:31.131Z,63.60
2017-10-17T04:58:36.260Z,63.50
2017-10-17T04:59:41.593Z,63.60
2017-10-17T05:00:46.535Z,63.60
2017-10-17T05:01:51.657Z,63.60
2017-10-17T05:02:57.817Z,63.80
2017-10-17T05:04:03.394Z,63.90
2017-10-17T05:05:08.567Z,63.80
2017-10-17T05:06:13.888Z,63.80
2017-10-17T05:07:19.291Z,63.20
2017-10-17T05:08:24.615Z,62.40
2017-10-17T05:09:29.956Z,62.00
2017-10-17T05:10:35.922Z,62.20
2017-10-17T05:11:41.077Z,62.70
2017-10-17T05:12:46.624Z,62.40
2017-10-17T05:13:51.840Z,62.30
2017-10-17T05:14:57.084Z,61.70
2017-10-17T05:16:02.522Z,61.30
2017-10-17T05:17:07.931Z,61.40
2017-10-17T05:18:12.984Z,61.90
2017-10-17T05:19:18.234Z,61.70
2017-10-17T05:20:23.484Z,61.60
2017-10-17T05:21:28.590Z,61.60
2017-10-17T05:22:33.731Z,61.20
2017-10-17T05:23:38.904Z,61.10
2017-10-17T05:24:44.487Z,61.00
2017-10-17T05:25:49.699Z,60.90
2017-10-17T05:26:55.115Z,60.90
2017-10-17T05:28:00.412Z,61.10
2017-10-17T05:29:05.539Z,61.00
2017-10-17T05:30:10.980Z,60.90
2017-10-17T05:31:16.280Z,60.80
2017-10-17T05:32:21.609Z,61.00
2017-10-17T05:33:26.890Z,60.90
2017-10-17T05:34:32.217Z,60.60
2017-10-17T05:35:37.544Z,60.70
2017-10-17T05:36:44.081Z,60.50
2017-10-17T05:37:49.700Z,60.50
2017-10-17T05:38:54.814Z,60.60
2017-10-17T05:40:00.298Z,60.90
2017-10-17T05:41:05.360Z,61.00
2017-10-17T05:42:10.260Z,60.90
2017-10-17T05:43:16.129Z,60.60
2017-10-17T05:44:21.468Z,60.60
2017-10-17T05:45:27.471Z,60.60
2017-10-17T05:46:32.719Z,60.70
2017-10-17T05:47:37.895Z,60.70
2017-10-17T05:48:43.043Z,60.90
2017-10-17T05:49:48.371Z,61.10
2017-10-17T05:50:53.770Z,60.90
2017-10-17T05:51:59.108Z,61.00
2017-10-17T05:53:04.912Z,61.10
2017-10-17T05:54:10.268Z,61.30
2017-10-17T05:55:15.402Z,61.40
2017-10-17T05:56:20.410Z,60.80
2017-10-17T05:57:25.406Z,60.40
2017-10-17T05:58:30.850Z,61.00
2017-10-17T05:59:36.085Z,61.20
2017-10-17T06:00:40.977Z,61.40
2017-10-17T06:01:46.170Z,61.30
2017-10-17T06:02:51.342Z,61.40
2017-10-17T06:03:56.668Z,61.40
2017-10-17T06:05:06.283Z,61.50
2017-10-17T06:06:11.175Z,61.50
2017-10-17T06:07:16.409Z,61.60
2017-10-17T06:08:22.269Z,61.80
2017-10-17T06:09:27.462Z,61.70
2017-10-17T06:10:32.858Z,61.70
2017-10-17T06:11:37.903Z,61.90
2017-10-17T06:12:43.000Z,61.80
2017-10-17T06:13:48.317Z,61.90
2017-10-17T06:14:53.602Z,61.90
2017-10-17T06:15:58.827Z,61.60
2017-10-17T06:17:04.547Z,61.50
2017-10-17T06:18:09.692Z,61.50
2017-10-17T06:19:14.919Z,62.20
2017-10-17T06:20:19.757Z,61.50
2017-10-17T06:21:24.509Z,61.60
2017-10-17T06:22:30.380Z,61.60
2017-10-17T06:23:35.771Z,61.50
2017-10-17T06:24:40.790Z,61.50
2017-10-17T06:25:47.154Z,61.60
2017-10-17T06:26:52.328Z,61.90
2017-10-17T06:27:57.505Z,62.10
2017-10-17T06:29:02.885Z,62.00
2017-10-17T06:30:08.234Z,62.20
2017-10-17T06:31:13.277Z,61.90
2017-10-17T06:32:18.606Z,61.70
2017-10-17T06:33:24.351Z,61.50
2017-10-17T06:34:29.500Z,61.30
2017-10-17T06:35:34.590Z,61.30
2017-10-17T06:36:39.625Z,61.10
2017-10-17T06:37:44.841Z,61.10
2017-10-17T06:38:49.880Z,61.10
2017-10-17T06:39:54.938Z,61.10
2017-10-17T06:41:00.146Z,61.00
2017-10-17T06:42:05.769Z,61.00
2017-10-17T06:43:11.190Z,60.80
2017-10-17T06:44:16.347Z,61.00
2017-10-17T06:45:21.530Z,61.10
2017-10-17T06:46:26.698Z,61.00
2017-10-17T06:47:31.830Z,61.30
2017-10-17T06:48:36.971Z,61.50
2017-10-17T06:49:42.125Z,61.40
2017-10-17T06:50:47.933Z,61.20
2017-10-17T06:51:53.456Z,61.20
2017-10-17T06:52:59.116Z,61.30
2017-10-17T06:54:04.477Z,61.10
2017-10-17T06:55:09.528Z,61.00
2017-10-17T06:56:14.303Z,60.80
2017-10-17T06:57:19.738Z,60.80
2017-10-17T06:58:25.143Z,60.80
2017-10-17T06:59:31.743Z,60.80
2017-10-17T07:00:37.152Z,60.90
2017-10-17T07:01:42.151Z,61.00
2017-10-17T07:02:47.701Z,61.10
2017-10-17T07:03:53.105Z,61.30
2017-10-17T07:04:58.311Z,61.50
2017-10-17T07:06:04.240Z,61.60
2017-10-17T07:07:09.819Z,61.60
2017-10-17T07:08:15.127Z,61.70
2017-10-17T07:09:20.288Z,61.00
2017-10-17T07:10:25.753Z,61.00
2017-10-17T07:11:30.955Z,61.00
2017-10-17T07:12:36.004Z,61.30
2017-10-17T07:13:41.174Z,61.30
2017-10-17T07:14:46.600Z,61.40
2017-10-17T07:15:51.462Z,61.10
2017-10-17T07:16:56.924Z,60.90
2017-10-17T07:18:02.203Z,61.20
2017-10-17T07:19:07.653Z,61.20
2017-10-17T07:20:13.169Z,61.30
2017-10-17T07:21:18.643Z,61.30
2017-10-17T07:22:23.662Z,61.30
2017-10-17T07:23:29.141Z,60.80
2017-10-17T07:24:34.371Z,60.00
2017-10-17T07:25:39.657Z,60.30
2017-10-17T07:26:44.688Z,60.10
2017-10-17T07:27:49.739Z,59.70
2017-10-17T07:28:54.500Z,59.30
2017-10-17T07:29:59.616Z,59.20
2017-10-17T07:31:04.564Z,59.30
2017-10-17T07:32:09.316Z,59.70
2017-10-17T07:33:14.443Z,59.80
2017-10-17T07:34:19.361Z,59.90
2017-10-17T07:35:24.381Z,60.10
2017-10-17T07:36:29.354Z,60.10
2017-10-17T07:37:34.363Z,60.20
2017-10-17T07:38:39.243Z,60.00
2017-10-17T07:39:44.128Z,59.90
2017-10-17T07:40:49.718Z,59.80
2017-10-17T07:41:54.523Z,59.20
2017-10-17T07:43:00.118Z,59.10
2017-10-17T07:44:05.164Z,59.20
2017-10-17T07:45:10.145Z,59.40
2017-10-17T07:46:15.204Z,59.50
2017-10-17T07:47:20.264Z,59.30
2017-10-17T07:48:25.316Z,58.70
2017-10-17T07:49:30.091Z,58.30
2017-10-17T07:50:35.299Z,58.30
2017-10-17T07:51:40.290Z,58.20
2017-10-17T07:52:45.318Z,58.30
2017-10-17T07:53:50.100Z,59.30
2017-10-17T07:54:55.005Z,58.80
2017-10-17T07:56:00.030Z,59.00
2017-10-17T07:57:05.002Z,59.10
2017-10-17T07:58:09.860Z,59.20
2017-10-17T07:59:14.970Z,59.20
2017-10-17T08:00:19.996Z,59.20
2017-10-17T08:01:25.039Z,59.00
2017-10-17T08:02:30.117Z,58.70
2017-10-17T08:03:35.077Z,58.70
2017-10-17T08:04:39.858Z,58.70
2017-10-17T08:05:44.751Z,58.70
2017-10-17T08:06:49.473Z,58.80
2017-10-17T08:07:54.221Z,59.00
2017-10-17T08:08:59.284Z,59.00
2017-10-17T08:10:04.251Z,59.00
2017-10-17T08:11:09.655Z,59.00
2017-10-17T08:12:14.422Z,58.80
2017-10-17T08:13:19.391Z,58.70
2017-10-17T08:14:24.404Z,58.80
2017-10-17T08:15:29.234Z,58.80
2017-10-17T08:16:34.175Z,58.80
2017-10-17T08:17:39.066Z,58.70
2017-10-17T08:18:43.961Z,58.50
2017-10-17T08:19:49.049Z,58.50
2017-10-17T08:20:53.961Z,58.20
2017-10-17T08:21:58.826Z,57.70
2017-10-17T08:23:04.006Z,57.60
2017-10-17T08:24:08.754Z,57.60
2017-10-17T08:25:13.622Z,57.60
2017-10-17T08:26:18.378Z,57.70
2017-10-17T08:27:23.218Z,57.90
2017-10-17T08:28:28.506Z,58.30
2017-10-17T08:29:33.441Z,57.40
2017-10-17T08:30:38.211Z,57.40
2017-10-17T08:31:43.164Z,57.60
2017-10-17T08:32:48.178Z,57.70
2017-10-17T08:33:53.311Z,57.40
2017-10-17T08:34:58.324Z,57.40
2017-10-17T08:36:03.306Z,57.60
2017-10-17T08:37:08.232Z,57.80
2017-10-17T08:38:13.265Z,57.80
2017-10-17T08:39:18.160Z,57.70
2017-10-17T08:40:23.346Z,57.90
2017-10-17T08:41:28.789Z,57.60
2017-10-17T08:42:33.674Z,57.70
2017-10-17T08:43:38.515Z,57.90
2017-10-17T08:44:43.241Z,57.60
2017-10-17T08:45:48.186Z,57.20
2017-10-17T08:46:53.324Z,57.20
2017-10-17T08:47:58.223Z,57.50
2017-10-17T08:49:03.026Z,57.50
2017-10-17T08:50:07.925Z,57.50
2017-10-17T08:51:12.785Z,57.50
2017-10-17T08:52:17.910Z,57.60
2017-10-17T08:53:22.654Z,57.80
2017-10-17T08:54:27.827Z,57.70
2017-10-17T08:55:32.624Z,57.50
2017-10-17T08:56:37.504Z,57.50
2017-10-17T08:57:42.537Z,57.80
2017-10-17T08:58:47.310Z,57.70
2017-10-17T08:59:52.202Z,57.70
2017-10-17T09:00:57.060Z,57.30
2017-10-17T09:02:02.237Z,57.40
2017-10-17T09:03:07.301Z,57.50
2017-10-17T09:04:12.289Z,57.50
2017-10-17T09:05:17.177Z,57.30
2017-10-17T09:06:21.931Z,56.90
2017-10-17T09:07:26.958Z,57.10
2017-10-17T09:08:31.812Z,56.70
2017-10-17T09:09:36.904Z,56.70
2017-10-17T09:10:42.103Z,56.90
2017-10-17T09:11:47.170Z,56.90
2017-10-17T09:12:51.902Z,56.90
2017-10-17T09:13:56.962Z,56.80
2017-10-17T09:15:02.138Z,56.80
2017-10-17T09:16:07.347Z,56.90
2017-10-17T09:17:12.359Z,57.00
2017-10-17T09:18:17.372Z,56.60
2017-10-17T09:19:22.283Z,56.50
2017-10-17T09:20:27.398Z,56.40
2017-10-17T09:21:32.310Z,56.60
2017-10-17T09:22:37.244Z,56.40
2017-10-17T09:23:42.280Z,56.20
2017-10-17T09:24:47.027Z,56.20
2017-10-17T09:25:52.061Z,56.20
2017-10-17T09:26:57.003Z,56.10
2017-10-17T09:28:01.976Z,56.20
2017-10-17T09:29:06.820Z,56.10
2017-10-17T09:30:11.829Z,56.40
2017-10-17T09:31:17.020Z,56.70
2017-10-17T09:32:22.019Z,56.70
2017-10-17T09:33:26.815Z,56.60
2017-10-17T09:34:31.765Z,56.50
2017-10-17T09:35:36.684Z,56.60
2017-10-17T09:36:41.565Z,56.50
2017-10-17T09:37:46.518Z,56.50
2017-10-17T09:38:51.533Z,56.60
2017-10-17T09:39:56.729Z,56.60
2017-10-17T09:41:02.156Z,56.70
2017-10-17T09:42:07.394Z,56.80
2017-10-17T09:43:12.366Z,56.30
2017-10-17T09:44:17.371Z,56.40
2017-10-17T09:45:22.415Z,56.40
2017-10-17T09:46:27.552Z,56.10
2017-10-17T09:47:32.596Z,56.00
2017-10-17T09:48:37.761Z,56.20
2017-10-17T09:49:42.672Z,56.00
2017-10-17T09:50:47.589Z,56.00
2017-10-17T09:51:52.443Z,56.00
2017-10-17T09:52:57.437Z,56.00
2017-10-17T09:54:02.520Z,55.80
2017-10-17T09:55:07.330Z,56.00
2017-10-17T09:56:12.319Z,56.10
2017-10-17T09:57:17.497Z,56.20
2017-10-17T09:58:22.454Z,56.20
2017-10-17T09:59:27.549Z,56.40
2017-10-17T10:00:32.395Z,56.40
2017-10-17T10:01:37.361Z,56.40
2017-10-17T10:02:42.309Z,56.20
2017-10-17T10:03:47.171Z,56.40
2017-10-17T10:04:51.942Z,56.20
2017-10-17T10:05:57.335Z,56.30
2017-10-17T10:07:02.709Z,56.30
2017-10-17T10:08:07.857Z,56.40
2017-10-17T10:09:12.862Z,56.10
2017-10-17T10:10:17.828Z,56.20
2017-10-17T10:11:22.650Z,56.30
2017-10-17T10:12:27.458Z,56.10
2017-10-17T10:13:32.583Z,56.20
2017-10-17T10:14:37.536Z,56.20
2017-10-17T10:15:42.545Z,56.20
2017-10-17T10:16:47.466Z,56.20
2017-10-17T10:17:52.331Z,56.20
2017-10-17T10:18:57.167Z,55.80
2017-10-17T10:20:01.989Z,55.70
2017-10-17T10:21:06.925Z,55.80
2017-10-17T10:22:11.978Z,55.90
2017-10-17T10:23:16.740Z,55.60
2017-10-17T10:24:21.904Z,55.40
2017-10-17T10:25:26.983Z,55.30
2017-10-17T10:26:32.148Z,55.40
2017-10-17T10:27:37.356Z,55.50
2017-10-17T10:28:42.218Z,55.60
2017-10-17T10:29:47.437Z,55.70
2017-10-17T10:30:52.318Z,55.70
2017-10-17T10:31:57.264Z,55.80
2017-10-17T10:33:02.151Z,55.90
2017-10-17T10:34:07.065Z,55.90
2017-10-17T10:35:11.901Z,55.90
2017-10-17T10:36:17.439Z,55.70
2017-10-17T10:37:22.537Z,55.40
2017-10-17T10:38:27.519Z,55.30
2017-10-17T10:39:32.575Z,55.20
2017-10-17T10:40:37.511Z,55.80
2017-10-17T10:41:42.673Z,55.10
2017-10-17T10:42:47.598Z,55.20
2017-10-17T10:43:52.533Z,55.20
2017-10-17T10:44:57.291Z,55.20
2017-10-17T10:46:02.634Z,55.10
2017-10-17T10:47:07.413Z,55.10
2017-10-17T10:48:12.394Z,54.90
2017-10-17T10:49:17.245Z,55.00
2017-10-17T10:50:22.302Z,55.00
2017-10-17T10:51:27.181Z,55.10
2017-10-17T10:52:32.198Z,55.20
2017-10-17T10:53:37.140Z,55.10
2017-10-17T10:54:42.056Z,54.80
2017-10-17T10:55:46.804Z,54.90
2017-10-17T10:56:51.585Z,55.00
2017-10-17T10:57:56.496Z,55.10
2017-10-17T10:59:01.451Z,54.80
2017-10-17T11:00:06.527Z,54.50
2017-10-17T11:01:11.435Z,54.20
2017-10-17T11:02:16.289Z,53.90
2017-10-17T11:03:21.414Z,53.80
2017-10-17T11:04:26.660Z,54.00
2017-10-17T11:05:31.748Z,54.10
2017-10-17T11:06:36.555Z,54.90
2017-10-17T11:07:41.684Z,54.20
2017-10-17T11:08:46.774Z,54.10
2017-10-17T11:09:51.676Z,53.90
2017-10-17T11:10:56.538Z,53.80
2017-10-17T11:12:01.475Z,53.80
2017-10-17T11:13:06.214Z,53.80
2017-10-17T11:14:11.180Z,53.70
2017-10-17T11:15:16.017Z,53.80
2017-10-17T11:16:20.792Z,53.80
2017-10-17T11:17:25.749Z,53.70
2017-10-17T11:18:30.649Z,54.00
2017-10-17T11:19:35.799Z,54.10
2017-10-17T11:20:40.730Z,54.40
2017-10-17T11:21:45.494Z,54.10
2017-10-17T11:22:50.666Z,53.90
2017-10-17T11:23:55.634Z,53.90
2017-10-17T11:25:00.561Z,53.90
2017-10-17T11:26:05.522Z,54.00
2017-10-17T11:27:10.513Z,54.30
2017-10-17T11:28:15.586Z,53.50
2017-10-17T11:29:20.742Z,53.70
2017-10-17T11:30:25.806Z,53.70
2017-10-17T11:31:31.120Z,53.80
2017-10-17T11:32:36.063Z,53.80
2017-10-17T11:33:41.029Z,54.00
2017-10-17T11:34:46.247Z,54.10
2017-10-17T11:35:51.465Z,53.90
2017-10-17T11:36:56.472Z,53.80
2017-10-17T11:38:02.598Z,53.60
2017-10-17T11:39:08.294Z,53.70
2017-10-17T11:40:14.650Z,53.80
2017-10-17T11:41:21.219Z,53.80
2017-10-17T11:42:28.181Z,53.70
2017-10-17T11:43:34.727Z,53.20
2017-10-17T11:44:41.407Z,53.10
2017-10-17T11:45:48.471Z,53.10
2017-10-17T11:46:55.031Z,52.80
2017-10-17T11:48:02.283Z,52.50
2017-10-17T11:49:08.554Z,52.50
2017-10-17T11:50:13.892Z,52.70
2017-10-17T11:51:19.902Z,53.00
2017-10-17T11:52:25.796Z,53.40
2017-10-17T11:53:32.350Z,53.40
2017-10-17T11:54:37.503Z,53.70
2017-10-17T11:55:42.342Z,53.70
2017-10-17T11:56:47.701Z,53.70
2017-10-17T11:57:52.943Z,53.80
2017-10-17T11:58:58.280Z,53.80
2017-10-17T12:00:04.280Z,53.90
2017-10-17T12:01:10.587Z,54.00
2017-10-17T12:02:18.784Z,54.10
2017-10-17T12:03:26.533Z,54.00
2017-10-17T12:04:35.257Z,54.00
2017-10-17T12:05:40.839Z,54.00
2017-10-17T12:06:46.344Z,54.00
2017-10-17T12:07:53.600Z,54.00
2017-10-17T12:09:03.388Z,54.00
2017-10-17T12:10:10.354Z,54.10
2017-10-17T12:11:16.264Z,54.10
2017-10-17T12:12:21.793Z,54.10
2017-10-17T12:13:27.041Z,54.10
2017-10-17T12:14:32.596Z,54.20
2017-10-17T12:15:38.689Z,54.10
2017-10-17T12:16:45.497Z,53.70
2017-10-17T12:17:51.746Z,52.90
2017-10-17T12:18:57.667Z,52.40
2017-10-17T12:20:03.111Z,52.60
2017-10-17T12:21:08.409Z,52.40
2017-10-17T12:22:13.791Z,52.80
2017-10-17T12:23:19.174Z,52.10
2017-10-17T12:24:24.819Z,50.90
2017-10-17T12:25:30.099Z,50.50
2017-10-17T12:26:35.624Z,50.20
2017-10-17T12:27:40.843Z,51.00
2017-10-17T12:28:46.189Z,51.20
2017-10-17T12:29:51.352Z,51.10
2017-10-17T12:30:56.780Z,50.70
2017-10-17T12:32:02.208Z,50.70
2017-10-17T12:33:07.842Z,51.20
2017-10-17T12:34:14.351Z,51.70
2017-10-17T12:35:19.694Z,51.30
2017-10-17T12:36:26.236Z,50.70
2017-10-17T12:37:32.059Z,50.70
2017-10-17T12:38:37.865Z,50.40
2017-10-17T12:39:43.798Z,50.00
2017-10-17T12:40:50.284Z,50.00
2017-10-17T12:41:56.102Z,49.50
2017-10-17T12:43:01.761Z,49.30
2017-10-17T12:44:07.556Z,49.60
2017-10-17T12:45:13.441Z,49.20
2017-10-17T12:46:20.054Z,49.70
2017-10-17T12:47:26.201Z,49.20
2017-10-17T12:48:31.975Z,49.00
2017-10-17T12:49:37.752Z,49.00
2017-10-17T12:50:43.485Z,49.20
2017-10-17T12:51:49.574Z,49.90
2017-10-17T12:52:56.582Z,50.10
2017-10-17T12:54:02.729Z,50.10
2017-10-17T12:55:08.245Z,49.60
2017-10-17T12:56:17.408Z,50.00
2017-10-17T12:57:22.934Z,49.40
2017-10-17T12:58:28.378Z,49.80
2017-10-17T12:59:33.896Z,50.10
2017-10-17T13:00:39.745Z,50.70
2017-10-17T13:01:44.879Z,50.30
2017-10-17T13:02:50.492Z,50.00
2017-10-17T13:03:55.978Z,50.30
2017-10-17T13:05:01.657Z,50.70
2017-10-17T13:06:07.282Z,50.90
2017-10-17T13:07:12.639Z,51.00
2017-10-17T13:08:18.916Z,51.10
2017-10-17T13:09:25.039Z,51.60
2017-10-17T13:10:33.454Z,51.10
2017-10-17T13:11:39.587Z,50.70
2017-10-17T13:12:44.942Z,50.80
2017-10-17T13:13:50.349Z,50.50
2017-10-17T13:14:55.582Z,50.30
2017-10-17T13:16:01.790Z,50.30
2017-10-17T13:17:07.731Z,50.80
2017-10-17T13:18:13.943Z,51.40
2017-10-17T13:19:19.105Z,51.90
2017-10-17T13:20:24.457Z,52.20
2017-10-17T13:21:29.645Z,52.30
2017-10-17T13:22:34.855Z,52.20
2017-10-17T13:23:39.816Z,51.40
2017-10-17T13:24:44.849Z,51.10
2017-10-17T13:25:50.031Z,51.10
2017-10-17T13:26:54.898Z,51.10
2017-10-17T13:27:59.888Z,51.30
2017-10-17T13:29:04.861Z,51.50
2017-10-17T13:30:09.889Z,51.30
2017-10-17T13:31:15.052Z,51.60
2017-10-17T13:32:20.051Z,52.20
2017-10-17T13:33:25.023Z,52.40
2017-10-17T13:34:30.157Z,52.30
2017-10-17T13:35:35.355Z,52.10
2017-10-17T13:36:40.454Z,51.50
2017-10-17T13:37:45.501Z,51.30
2017-10-17T13:38:50.540Z,51.90
2017-10-17T13:39:55.396Z,52.50
2017-10-17T13:41:00.338Z,52.70
2017-10-17T13:42:05.160Z,52.60
2017-10-17T13:43:10.162Z,52.60
2017-10-17T13:44:15.076Z,52.80
2017-10-17T13:45:20.280Z,52.70
2017-10-17T13:46:25.271Z,52.90
2017-10-17T13:47:30.752Z,53.10
2017-10-17T13:48:36.583Z,53.00
2017-10-17T13:49:41.986Z,52.80
2017-10-17T13:50:47.057Z,52.70
2017-10-17T13:51:51.991Z,53.00
2017-10-17T13:52:57.230Z,53.20
2017-10-17T13:54:02.837Z,52.40
2017-10-17T13:55:07.858Z,52.50
2017-10-17T13:56:12.819Z,52.00
2017-10-17T13:57:18.017Z,51.60
2017-10-17T13:58:23.143Z,51.90